sensor_id;sensor_type;location;lat;lon;timestamp;P1;durP1;ratioP1;P2;durP2;ratioP2
9547;SDS011;4812;51.992;8.648;2022-08-19T00:02:16;15.17;;;11.87;;
9547;SDS011;4812;51.992;8.648;2022-08-19T00:04:44;14.47;;;11.73;;
9547;SDS011;4812;51.992;8.648;2022-08-19T00:07:15;14.83;;;13.23;;
9547;SDS011;4812;51.992;8.648;2022-08-19T00:09:42;18.20;;;13.40;;
9547;SDS011;4812;51.992;8.648;2022-08-19T00:12:10;17.50;;;14.07;;
9547;SDS011;4812;51.992;8.648;2022-08-19T00:14:38;20.70;;;14.33;;
9547;SDS011;4812;51.992;8.648;2022-08-19T00:17:07;16.93;;;13.77;;
9547;SDS011;4812;51.992;8.648;2022-08-19T00:19:36;18.40;;;13.77;;
9547;SDS011;4812;51.992;8.648;2022-08-19T00:22:04;16.27;;;13.43;;
9547;SDS011;4812;51.992;8.648;2022-08-19T00:24:33;19.93;;;13.83;;
9547;SDS011;4812;51.992;8.648;2022-08-19T00:27:01;16.27;;;13.73;;
9547;SDS011;4812;51.992;8.648;2022-08-19T00:29:49;17.67;;;14.17;;
9547;SDS011;4812;51.992;8.648;2022-08-19T00:32:18;20.33;;;15.70;;
9547;SDS011;4812;51.992;8.648;2022-08-19T00:34:45;21.53;;;15.87;;
9547;SDS011;4812;51.992;8.648;2022-08-19T00:37:13;23.07;;;14.17;;
9547;SDS011;4812;51.992;8.648;2022-08-19T00:39:42;20.53;;;14.83;;
9547;SDS011;4812;51.992;8.648;2022-08-19T00:42:09;20.10;;;14.57;;
9547;SDS011;4812;51.992;8.648;2022-08-19T00:44:41;21.00;;;14.90;;
9547;SDS011;4812;51.992;8.648;2022-08-19T00:47:09;22.20;;;16.17;;
9547;SDS011;4812;51.992;8.648;2022-08-19T00:49:40;22.63;;;15.70;;
9547;SDS011;4812;51.992;8.648;2022-08-19T00:52:11;23.70;;;16.13;;
9547;SDS011;4812;51.992;8.648;2022-08-19T00:54:42;24.93;;;15.90;;
9547;SDS011;4812;51.992;8.648;2022-08-19T00:57:14;21.03;;;15.07;;
9547;SDS011;4812;51.992;8.648;2022-08-19T00:59:44;26.23;;;16.50;;
9547;SDS011;4812;51.992;8.648;2022-08-19T01:02:28;20.87;;;15.23;;
9547;SDS011;4812;51.992;8.648;2022-08-19T01:04:56;20.90;;;15.23;;
9547;SDS011;4812;51.992;8.648;2022-08-19T01:07:24;16.17;;;14.47;;
9547;SDS011;4812;51.992;8.648;2022-08-19T01:09:53;17.27;;;14.40;;
9547;SDS011;4812;51.992;8.648;2022-08-19T01:12:21;20.90;;;15.27;;
9547;SDS011;4812;51.992;8.648;2022-08-19T01:14:48;22.63;;;14.57;;
9547;SDS011;4812;51.992;8.648;2022-08-19T01:17:16;19.37;;;15.57;;
9547;SDS011;4812;51.992;8.648;2022-08-19T01:19:45;22.03;;;16.47;;
9547;SDS011;4812;51.992;8.648;2022-08-19T01:22:15;23.20;;;16.77;;
9547;SDS011;4812;51.992;8.648;2022-08-19T01:24:55;22.17;;;15.97;;
9547;SDS011;4812;51.992;8.648;2022-08-19T01:27:24;23.30;;;16.30;;
9547;SDS011;4812;51.992;8.648;2022-08-19T01:29:56;22.27;;;16.03;;
9547;SDS011;4812;51.992;8.648;2022-08-19T01:32:23;24.50;;;15.90;;
9547;SDS011;4812;51.992;8.648;2022-08-19T01:34:59;24.87;;;16.90;;
9547;SDS011;4812;51.992;8.648;2022-08-19T01:37:29;25.40;;;16.10;;
9547;SDS011;4812;51.992;8.648;2022-08-19T01:39:58;24.03;;;16.47;;
9547;SDS011;4812;51.992;8.648;2022-08-19T01:42:26;25.10;;;15.73;;
9547;SDS011;4812;51.992;8.648;2022-08-19T01:44:56;27.17;;;16.57;;
9547;SDS011;4812;51.992;8.648;2022-08-19T01:47:23;22.53;;;16.33;;
9547;SDS011;4812;51.992;8.648;2022-08-19T01:49:51;24.93;;;16.93;;
9547;SDS011;4812;51.992;8.648;2022-08-19T01:52:19;24.37;;;17.40;;
9547;SDS011;4812;51.992;8.648;2022-08-19T01:54:46;30.20;;;17.33;;
9547;SDS011;4812;51.992;8.648;2022-08-19T01:57:15;23.87;;;17.10;;
9547;SDS011;4812;51.992;8.648;2022-08-19T01:59:43;26.70;;;17.27;;
9547;SDS011;4812;51.992;8.648;2022-08-19T02:02:11;30.27;;;17.57;;
9547;SDS011;4812;51.992;8.648;2022-08-19T02:04:38;26.33;;;17.80;;
9547;SDS011;4812;51.992;8.648;2022-08-19T02:07:06;26.53;;;17.53;;
9547;SDS011;4812;51.992;8.648;2022-08-19T02:09:35;27.27;;;17.43;;
9547;SDS011;4812;51.992;8.648;2022-08-19T02:12:02;28.60;;;18.20;;
9547;SDS011;4812;51.992;8.648;2022-08-19T02:14:31;27.23;;;18.63;;
9547;SDS011;4812;51.992;8.648;2022-08-19T02:17:00;31.90;;;18.20;;
9547;SDS011;4812;51.992;8.648;2022-08-19T02:19:28;29.30;;;18.37;;
9547;SDS011;4812;51.992;8.648;2022-08-19T02:21:58;30.80;;;19.20;;
9547;SDS011;4812;51.992;8.648;2022-08-19T02:24:26;37.07;;;19.53;;
9547;SDS011;4812;51.992;8.648;2022-08-19T02:26:54;35.30;;;20.67;;
9547;SDS011;4812;51.992;8.648;2022-08-19T02:29:21;32.83;;;19.47;;
9547;SDS011;4812;51.992;8.648;2022-08-19T02:31:50;30.83;;;18.57;;
9547;SDS011;4812;51.992;8.648;2022-08-19T02:34:18;29.07;;;18.73;;
9547;SDS011;4812;51.992;8.648;2022-08-19T02:36:46;32.27;;;19.47;;
9547;SDS011;4812;51.992;8.648;2022-08-19T02:39:17;29.70;;;17.50;;
9547;SDS011;4812;51.992;8.648;2022-08-19T02:41:44;29.40;;;17.57;;
9547;SDS011;4812;51.992;8.648;2022-08-19T02:44:12;28.77;;;18.17;;
9547;SDS011;4812;51.992;8.648;2022-08-19T02:46:57;30.90;;;19.73;;
9547;SDS011;4812;51.992;8.648;2022-08-19T02:49:24;37.30;;;20.17;;
9547;SDS011;4812;51.992;8.648;2022-08-19T02:51:52;38.23;;;21.67;;
9547;SDS011;4812;51.992;8.648;2022-08-19T02:54:20;39.73;;;21.03;;
9547;SDS011;4812;51.992;8.648;2022-08-19T02:56:48;37.07;;;20.87;;
9547;SDS011;4812;51.992;8.648;2022-08-19T02:59:15;35.20;;;20.27;;
9547;SDS011;4812;51.992;8.648;2022-08-19T03:01:47;29.37;;;19.60;;
9547;SDS011;4812;51.992;8.648;2022-08-19T03:04:16;33.70;;;21.20;;
9547;SDS011;4812;51.992;8.648;2022-08-19T03:06:44;35.17;;;20.00;;
9547;SDS011;4812;51.992;8.648;2022-08-19T03:09:13;30.63;;;20.50;;
9547;SDS011;4812;51.992;8.648;2022-08-19T03:11:41;35.20;;;20.83;;
9547;SDS011;4812;51.992;8.648;2022-08-19T03:14:09;37.00;;;21.60;;
9547;SDS011;4812;51.992;8.648;2022-08-19T03:16:40;40.90;;;21.63;;
9547;SDS011;4812;51.992;8.648;2022-08-19T03:19:09;35.53;;;21.23;;
9547;SDS011;4812;51.992;8.648;2022-08-19T03:21:38;42.67;;;21.70;;
9547;SDS011;4812;51.992;8.648;2022-08-19T03:24:07;39.70;;;21.50;;
9547;SDS011;4812;51.992;8.648;2022-08-19T03:26:37;38.90;;;22.00;;
9547;SDS011;4812;51.992;8.648;2022-08-19T03:29:09;30.63;;;20.80;;
9547;SDS011;4812;51.992;8.648;2022-08-19T03:31:39;40.80;;;21.90;;
9547;SDS011;4812;51.992;8.648;2022-08-19T03:34:18;40.17;;;22.83;;
9547;SDS011;4812;51.992;8.648;2022-08-19T03:36:49;43.17;;;22.10;;
9547;SDS011;4812;51.992;8.648;2022-08-19T03:39:17;82.03;;;24.30;;
9547;SDS011;4812;51.992;8.648;2022-08-19T03:41:45;37.57;;;22.80;;
9547;SDS011;4812;51.992;8.648;2022-08-19T03:44:35;36.33;;;20.57;;
9547;SDS011;4812;51.992;8.648;2022-08-19T03:47:03;38.90;;;21.33;;
9547;SDS011;4812;51.992;8.648;2022-08-19T03:49:32;43.67;;;22.37;;
9547;SDS011;4812;51.992;8.648;2022-08-19T03:52:03;44.93;;;22.70;;
9547;SDS011;4812;51.992;8.648;2022-08-19T03:54:33;36.63;;;21.07;;
9547;SDS011;4812;51.992;8.648;2022-08-19T03:57:02;508.23;;;34.87;;
9547;SDS011;4812;51.992;8.648;2022-08-19T03:59:30;52.93;;;22.93;;
9547;SDS011;4812;51.992;8.648;2022-08-19T04:02:00;64.60;;;24.97;;
9547;SDS011;4812;51.992;8.648;2022-08-19T04:04:30;70.43;;;25.23;;
9547;SDS011;4812;51.992;8.648;2022-08-19T04:06:57;75.63;;;26.10;;
9547;SDS011;4812;51.992;8.648;2022-08-19T04:09:26;58.47;;;25.20;;
9547;SDS011;4812;51.992;8.648;2022-08-19T04:11:54;52.37;;;25.30;;
9547;SDS011;4812;51.992;8.648;2022-08-19T04:14:24;65.90;;;25.47;;
9547;SDS011;4812;51.992;8.648;2022-08-19T04:16:54;52.93;;;25.17;;
9547;SDS011;4812;51.992;8.648;2022-08-19T04:19:21;53.27;;;24.03;;
9547;SDS011;4812;51.992;8.648;2022-08-19T04:21:50;50.97;;;24.63;;
9547;SDS011;4812;51.992;8.648;2022-08-19T04:24:19;51.43;;;25.10;;
9547;SDS011;4812;51.992;8.648;2022-08-19T04:26:48;54.57;;;26.40;;
9547;SDS011;4812;51.992;8.648;2022-08-19T04:29:18;52.93;;;24.73;;
9547;SDS011;4812;51.992;8.648;2022-08-19T04:31:48;50.60;;;24.33;;
9547;SDS011;4812;51.992;8.648;2022-08-19T04:34:17;49.97;;;25.43;;
9547;SDS011;4812;51.992;8.648;2022-08-19T04:36:48;60.30;;;26.00;;
9547;SDS011;4812;51.992;8.648;2022-08-19T04:39:18;60.90;;;25.77;;
9547;SDS011;4812;51.992;8.648;2022-08-19T04:41:49;73.10;;;27.87;;
9547;SDS011;4812;51.992;8.648;2022-08-19T04:44:35;50.93;;;26.20;;
9547;SDS011;4812;51.992;8.648;2022-08-19T04:47:11;59.13;;;24.80;;
9547;SDS011;4812;51.992;8.648;2022-08-19T04:49:39;53.90;;;25.73;;
9547;SDS011;4812;51.992;8.648;2022-08-19T04:52:07;52.33;;;24.40;;
9547;SDS011;4812;51.992;8.648;2022-08-19T04:54:35;52.30;;;24.53;;
9547;SDS011;4812;51.992;8.648;2022-08-19T04:57:07;53.53;;;24.53;;
9547;SDS011;4812;51.992;8.648;2022-08-19T04:59:36;55.63;;;25.60;;
9547;SDS011;4812;51.992;8.648;2022-08-19T05:02:06;51.57;;;24.47;;
9547;SDS011;4812;51.992;8.648;2022-08-19T05:04:34;46.87;;;24.10;;
9547;SDS011;4812;51.992;8.648;2022-08-19T05:07:04;51.30;;;24.30;;
9547;SDS011;4812;51.992;8.648;2022-08-19T05:09:32;47.53;;;22.90;;
9547;SDS011;4812;51.992;8.648;2022-08-19T05:12:22;47.40;;;21.77;;
9547;SDS011;4812;51.992;8.648;2022-08-19T05:14:54;42.13;;;21.87;;
9547;SDS011;4812;51.992;8.648;2022-08-19T05:17:23;40.50;;;23.00;;
9547;SDS011;4812;51.992;8.648;2022-08-19T05:19:54;45.57;;;23.70;;
9547;SDS011;4812;51.992;8.648;2022-08-19T05:22:40;37.03;;;22.03;;
9547;SDS011;4812;51.992;8.648;2022-08-19T05:25:09;48.67;;;24.27;;
9547;SDS011;4812;51.992;8.648;2022-08-19T05:27:41;42.33;;;23.97;;
9547;SDS011;4812;51.992;8.648;2022-08-19T05:30:09;47.67;;;24.10;;
9547;SDS011;4812;51.992;8.648;2022-08-19T05:32:38;37.93;;;23.20;;
9547;SDS011;4812;51.992;8.648;2022-08-19T05:35:06;43.20;;;24.70;;
9547;SDS011;4812;51.992;8.648;2022-08-19T05:37:35;40.40;;;23.23;;
9547;SDS011;4812;51.992;8.648;2022-08-19T05:40:03;37.60;;;22.70;;
9547;SDS011;4812;51.992;8.648;2022-08-19T05:42:31;37.40;;;23.20;;
9547;SDS011;4812;51.992;8.648;2022-08-19T05:45:00;35.20;;;23.30;;
9547;SDS011;4812;51.992;8.648;2022-08-19T05:47:28;32.13;;;21.70;;
9547;SDS011;4812;51.992;8.648;2022-08-19T05:49:55;28.33;;;20.47;;
9547;SDS011;4812;51.992;8.648;2022-08-19T05:52:23;25.97;;;20.97;;
9547;SDS011;4812;51.992;8.648;2022-08-19T05:54:53;31.87;;;20.50;;
9547;SDS011;4812;51.992;8.648;2022-08-19T05:57:22;31.63;;;20.70;;
9547;SDS011;4812;51.992;8.648;2022-08-19T05:59:50;24.67;;;18.93;;
9547;SDS011;4812;51.992;8.648;2022-08-19T06:02:25;23.00;;;18.47;;
9547;SDS011;4812;51.992;8.648;2022-08-19T06:04:53;25.10;;;18.43;;
9547;SDS011;4812;51.992;8.648;2022-08-19T06:07:20;19.23;;;17.07;;
9547;SDS011;4812;51.992;8.648;2022-08-19T06:09:48;18.10;;;16.27;;
9547;SDS011;4812;51.992;8.648;2022-08-19T06:12:26;18.43;;;16.63;;
9547;SDS011;4812;51.992;8.648;2022-08-19T06:14:59;16.30;;;14.70;;
9547;SDS011;4812;51.992;8.648;2022-08-19T06:17:28;16.60;;;15.17;;
9547;SDS011;4812;51.992;8.648;2022-08-19T06:19:57;16.83;;;15.33;;
9547;SDS011;4812;51.992;8.648;2022-08-19T06:22:26;17.60;;;16.07;;
9547;SDS011;4812;51.992;8.648;2022-08-19T06:24:54;17.73;;;15.97;;
9547;SDS011;4812;51.992;8.648;2022-08-19T06:27:22;17.70;;;16.17;;
9547;SDS011;4812;51.992;8.648;2022-08-19T06:29:49;16.87;;;15.47;;
9547;SDS011;4812;51.992;8.648;2022-08-19T06:32:17;16.97;;;15.40;;
9547;SDS011;4812;51.992;8.648;2022-08-19T06:34:46;16.20;;;14.80;;
9547;SDS011;4812;51.992;8.648;2022-08-19T06:37:14;16.43;;;15.13;;
9547;SDS011;4812;51.992;8.648;2022-08-19T06:39:42;15.80;;;14.63;;
9547;SDS011;4812;51.992;8.648;2022-08-19T06:42:11;16.03;;;14.87;;
9547;SDS011;4812;51.992;8.648;2022-08-19T06:44:44;16.07;;;14.77;;
9547;SDS011;4812;51.992;8.648;2022-08-19T06:47:19;15.70;;;14.63;;
9547;SDS011;4812;51.992;8.648;2022-08-19T06:49:52;16.10;;;14.60;;
9547;SDS011;4812;51.992;8.648;2022-08-19T06:52:28;16.40;;;15.30;;
9547;SDS011;4812;51.992;8.648;2022-08-19T06:54:59;16.50;;;15.20;;
9547;SDS011;4812;51.992;8.648;2022-08-19T06:57:31;17.03;;;15.83;;
9547;SDS011;4812;51.992;8.648;2022-08-19T06:59:59;15.97;;;14.80;;
9547;SDS011;4812;51.992;8.648;2022-08-19T07:02:27;16.67;;;15.40;;
9547;SDS011;4812;51.992;8.648;2022-08-19T07:04:57;17.23;;;15.77;;
9547;SDS011;4812;51.992;8.648;2022-08-19T07:07:24;17.93;;;16.73;;
9547;SDS011;4812;51.992;8.648;2022-08-19T07:09:52;19.40;;;17.60;;
9547;SDS011;4812;51.992;8.648;2022-08-19T07:12:26;18.67;;;17.20;;
9547;SDS011;4812;51.992;8.648;2022-08-19T07:14:56;19.83;;;18.23;;
9547;SDS011;4812;51.992;8.648;2022-08-19T07:17:24;19.23;;;17.83;;
9547;SDS011;4812;51.992;8.648;2022-08-19T07:19:52;18.70;;;17.40;;
9547;SDS011;4812;51.992;8.648;2022-08-19T07:22:21;19.17;;;17.77;;
9547;SDS011;4812;51.992;8.648;2022-08-19T07:24:50;19.17;;;17.80;;
9547;SDS011;4812;51.992;8.648;2022-08-19T07:27:18;19.63;;;18.23;;
9547;SDS011;4812;51.992;8.648;2022-08-19T07:29:50;18.60;;;17.30;;
9547;SDS011;4812;51.992;8.648;2022-08-19T07:32:22;15.60;;;14.40;;
9547;SDS011;4812;51.992;8.648;2022-08-19T07:34:52;16.20;;;14.97;;
9547;SDS011;4812;51.992;8.648;2022-08-19T07:37:19;15.83;;;14.63;;
9547;SDS011;4812;51.992;8.648;2022-08-19T07:39:48;15.23;;;14.30;;
9547;SDS011;4812;51.992;8.648;2022-08-19T07:42:16;15.80;;;14.50;;
9547;SDS011;4812;51.992;8.648;2022-08-19T07:44:44;16.20;;;15.20;;
9547;SDS011;4812;51.992;8.648;2022-08-19T07:47:16;15.75;;;14.65;;
9547;SDS011;4812;51.992;8.648;2022-08-19T07:50:05;17.13;;;15.83;;
9547;SDS011;4812;51.992;8.648;2022-08-19T07:52:35;17.03;;;15.73;;
9547;SDS011;4812;51.992;8.648;2022-08-19T07:55:07;16.33;;;15.30;;
9547;SDS011;4812;51.992;8.648;2022-08-19T07:57:56;17.17;;;15.97;;
9547;SDS011;4812;51.992;8.648;2022-08-19T08:00:24;17.07;;;15.77;;
9547;SDS011;4812;51.992;8.648;2022-08-19T08:02:56;16.90;;;15.70;;
9547;SDS011;4812;51.992;8.648;2022-08-19T08:05:23;16.23;;;15.27;;
9547;SDS011;4812;51.992;8.648;2022-08-19T08:08:09;15.88;;;14.65;;
9547;SDS011;4812;51.992;8.648;2022-08-19T08:11:15;17.13;;;15.83;;
9547;SDS011;4812;51.992;8.648;2022-08-19T08:13:45;16.33;;;15.23;;
9547;SDS011;4812;51.992;8.648;2022-08-19T08:16:30;16.33;;;15.13;;
9547;SDS011;4812;51.992;8.648;2022-08-19T08:19:05;16.07;;;14.93;;
9547;SDS011;4812;51.992;8.648;2022-08-19T08:21:51;16.88;;;15.57;;
9547;SDS011;4812;51.992;8.648;2022-08-19T08:24:20;17.52;;;16.15;;
9547;SDS011;4812;51.992;8.648;2022-08-19T08:26:55;17.43;;;16.30;;
9547;SDS011;4812;51.992;8.648;2022-08-19T08:29:25;17.53;;;16.30;;
9547;SDS011;4812;51.992;8.648;2022-08-19T08:32:00;16.47;;;15.33;;
9547;SDS011;4812;51.992;8.648;2022-08-19T08:34:28;16.80;;;15.63;;
9547;SDS011;4812;51.992;8.648;2022-08-19T08:36:56;16.83;;;15.60;;
9547;SDS011;4812;51.992;8.648;2022-08-19T08:39:23;16.80;;;15.43;;
9547;SDS011;4812;51.992;8.648;2022-08-19T08:41:51;16.73;;;15.60;;
9547;SDS011;4812;51.992;8.648;2022-08-19T08:44:25;17.43;;;15.90;;
9547;SDS011;4812;51.992;8.648;2022-08-19T08:47:01;17.08;;;15.98;;
9547;SDS011;4812;51.992;8.648;2022-08-19T08:49:33;16.27;;;15.27;;
9547;SDS011;4812;51.992;8.648;2022-08-19T08:52:06;16.50;;;15.43;;
9547;SDS011;4812;51.992;8.648;2022-08-19T08:54:45;15.60;;;14.60;;
9547;SDS011;4812;51.992;8.648;2022-08-19T08:57:23;15.60;;;14.60;;
9547;SDS011;4812;51.992;8.648;2022-08-19T09:00:04;16.55;;;15.38;;
9547;SDS011;4812;51.992;8.648;2022-08-19T09:02:40;16.77;;;15.68;;
9547;SDS011;4812;51.992;8.648;2022-08-19T09:05:09;16.80;;;15.80;;
9547;SDS011;4812;51.992;8.648;2022-08-19T09:07:44;17.45;;;16.10;;
9547;SDS011;4812;51.992;8.648;2022-08-19T09:10:33;15.80;;;14.90;;
9547;SDS011;4812;51.992;8.648;2022-08-19T09:13:14;16.67;;;15.57;;
9547;SDS011;4812;51.992;8.648;2022-08-19T09:15:49;17.15;;;15.95;;
9547;SDS011;4812;51.992;8.648;2022-08-19T09:18:20;16.83;;;15.73;;
9547;SDS011;4812;51.992;8.648;2022-08-19T09:20:47;16.90;;;15.80;;
9547;SDS011;4812;51.992;8.648;2022-08-19T09:23:15;17.52;;;16.33;;
9547;SDS011;4812;51.992;8.648;2022-08-19T09:25:52;17.35;;;16.15;;
9547;SDS011;4812;51.992;8.648;2022-08-19T09:28:21;18.00;;;16.70;;
9547;SDS011;4812;51.992;8.648;2022-08-19T09:30:52;17.00;;;15.80;;
9547;SDS011;4812;51.992;8.648;2022-08-19T09:33:20;16.75;;;15.55;;
9547;SDS011;4812;51.992;8.648;2022-08-19T09:35:48;16.77;;;15.65;;
9547;SDS011;4812;51.992;8.648;2022-08-19T09:38:19;16.63;;;15.60;;
9547;SDS011;4812;51.992;8.648;2022-08-19T09:40:46;16.73;;;15.68;;
9547;SDS011;4812;51.992;8.648;2022-08-19T09:43:15;16.73;;;15.70;;
9547;SDS011;4812;51.992;8.648;2022-08-19T09:45:59;17.65;;;16.55;;
9547;SDS011;4812;51.992;8.648;2022-08-19T09:48:27;16.98;;;15.68;;
9547;SDS011;4812;51.992;8.648;2022-08-19T09:51:01;16.85;;;15.80;;
9547;SDS011;4812;51.992;8.648;2022-08-19T09:53:30;16.90;;;15.80;;
9547;SDS011;4812;51.992;8.648;2022-08-19T09:55:59;16.70;;;15.50;;
9547;SDS011;4812;51.992;8.648;2022-08-19T09:58:29;16.65;;;15.55;;
9547;SDS011;4812;51.992;8.648;2022-08-19T10:00:57;16.75;;;15.73;;
9547;SDS011;4812;51.992;8.648;2022-08-19T10:03:27;16.73;;;15.73;;
9547;SDS011;4812;51.992;8.648;2022-08-19T10:05:57;17.10;;;16.00;;
9547;SDS011;4812;51.992;8.648;2022-08-19T10:08:26;18.20;;;16.80;;
9547;SDS011;4812;51.992;8.648;2022-08-19T10:10:56;16.55;;;15.55;;
9547;SDS011;4812;51.992;8.648;2022-08-19T10:13:25;17.27;;;16.13;;
9547;SDS011;4812;51.992;8.648;2022-08-19T10:15:55;17.05;;;16.05;;
9547;SDS011;4812;51.992;8.648;2022-08-19T10:18:25;16.90;;;15.70;;
9547;SDS011;4812;51.992;8.648;2022-08-19T10:21:01;16.85;;;15.75;;
9547;SDS011;4812;51.992;8.648;2022-08-19T10:23:34;17.00;;;15.90;;
9547;SDS011;4812;51.992;8.648;2022-08-19T10:26:03;17.70;;;16.52;;
9547;SDS011;4812;51.992;8.648;2022-08-19T10:28:32;17.45;;;16.45;;
9547;SDS011;4812;51.992;8.648;2022-08-19T10:31:04;16.52;;;15.63;;
9547;SDS011;4812;51.992;8.648;2022-08-19T10:33:35;17.08;;;16.02;;
9547;SDS011;4812;51.992;8.648;2022-08-19T10:36:19;17.00;;;15.90;;
9547;SDS011;4812;51.992;8.648;2022-08-19T10:38:49;16.80;;;15.80;;
9547;SDS011;4812;51.992;8.648;2022-08-19T10:41:23;17.10;;;16.00;;
9547;SDS011;4812;51.992;8.648;2022-08-19T10:43:51;16.55;;;15.43;;
9547;SDS011;4812;51.992;8.648;2022-08-19T10:46:21;16.65;;;15.65;;
9547;SDS011;4812;51.992;8.648;2022-08-19T10:48:51;17.65;;;16.35;;
9547;SDS011;4812;51.992;8.648;2022-08-19T10:51:19;17.40;;;16.27;;
9547;SDS011;4812;51.992;8.648;2022-08-19T10:54:13;16.77;;;15.77;;
9547;SDS011;4812;51.992;8.648;2022-08-19T10:56:41;16.80;;;15.70;;
9547;SDS011;4812;51.992;8.648;2022-08-19T10:59:20;17.33;;;16.05;;
9547;SDS011;4812;51.992;8.648;2022-08-19T11:01:52;16.67;;;15.68;;
9547;SDS011;4812;51.992;8.648;2022-08-19T11:04:23;16.45;;;15.43;;
9547;SDS011;4812;51.992;8.648;2022-08-19T11:06:55;16.50;;;15.52;;
9547;SDS011;4812;51.992;8.648;2022-08-19T11:09:23;16.55;;;15.35;;
9547;SDS011;4812;51.992;8.648;2022-08-19T11:11:59;16.55;;;15.45;;
9547;SDS011;4812;51.992;8.648;2022-08-19T11:14:29;17.00;;;16.00;;
9547;SDS011;4812;51.992;8.648;2022-08-19T11:17:00;16.30;;;15.40;;
9547;SDS011;4812;51.992;8.648;2022-08-19T11:19:29;17.10;;;15.95;;
9547;SDS011;4812;51.992;8.648;2022-08-19T11:21:57;16.20;;;15.30;;
9547;SDS011;4812;51.992;8.648;2022-08-19T11:24:29;16.73;;;15.70;;
9547;SDS011;4812;51.992;8.648;2022-08-19T11:27:00;16.50;;;15.50;;
9547;SDS011;4812;51.992;8.648;2022-08-19T11:29:30;16.20;;;15.13;;
9547;SDS011;4812;51.992;8.648;2022-08-19T11:32:02;16.92;;;15.93;;
9547;SDS011;4812;51.992;8.648;2022-08-19T11:34:32;16.75;;;15.65;;
9547;SDS011;4812;51.992;8.648;2022-08-19T11:37:01;16.00;;;15.00;;
9547;SDS011;4812;51.992;8.648;2022-08-19T11:39:30;16.40;;;15.50;;
9547;SDS011;4812;51.992;8.648;2022-08-19T11:41:59;15.80;;;15.00;;
9547;SDS011;4812;51.992;8.648;2022-08-19T11:44:28;16.00;;;15.10;;
9547;SDS011;4812;51.992;8.648;2022-08-19T11:46:57;15.88;;;14.77;;
9547;SDS011;4812;51.992;8.648;2022-08-19T11:49:35;16.17;;;15.27;;
9547;SDS011;4812;51.992;8.648;2022-08-19T11:52:04;15.65;;;14.75;;
9547;SDS011;4812;51.992;8.648;2022-08-19T11:54:31;16.10;;;15.13;;
9547;SDS011;4812;51.992;8.648;2022-08-19T11:56:59;16.00;;;15.10;;
9547;SDS011;4812;51.992;8.648;2022-08-19T11:59:27;16.40;;;15.50;;
9547;SDS011;4812;51.992;8.648;2022-08-19T12:01:55;16.02;;;15.02;;
9547;SDS011;4812;51.992;8.648;2022-08-19T12:04:23;16.48;;;15.48;;
9547;SDS011;4812;51.992;8.648;2022-08-19T12:06:52;16.65;;;15.57;;
9547;SDS011;4812;51.992;8.648;2022-08-19T12:09:20;15.68;;;14.77;;
9547;SDS011;4812;51.992;8.648;2022-08-19T12:11:48;16.23;;;15.23;;
9547;SDS011;4812;51.992;8.648;2022-08-19T12:14:16;15.93;;;14.93;;
9547;SDS011;4812;51.992;8.648;2022-08-19T12:16:45;16.17;;;15.27;;
9547;SDS011;4812;51.992;8.648;2022-08-19T12:19:17;16.45;;;15.55;;
9547;SDS011;4812;51.992;8.648;2022-08-19T12:21:48;15.52;;;14.70;;
9547;SDS011;4812;51.992;8.648;2022-08-19T12:24:17;15.65;;;14.75;;
9547;SDS011;4812;51.992;8.648;2022-08-19T12:26:49;16.13;;;15.23;;
9547;SDS011;4812;51.992;8.648;2022-08-19T12:29:19;16.35;;;15.25;;
9547;SDS011;4812;51.992;8.648;2022-08-19T12:31:49;16.35;;;15.45;;
9547;SDS011;4812;51.992;8.648;2022-08-19T12:34:17;16.38;;;15.38;;
9547;SDS011;4812;51.992;8.648;2022-08-19T12:36:46;15.70;;;14.90;;
9547;SDS011;4812;51.992;8.648;2022-08-19T12:39:15;16.15;;;15.20;;
9547;SDS011;4812;51.992;8.648;2022-08-19T12:41:44;16.00;;;15.10;;
9547;SDS011;4812;51.992;8.648;2022-08-19T12:44:20;16.13;;;15.13;;
9547;SDS011;4812;51.992;8.648;2022-08-19T12:46:55;16.00;;;15.02;;
9547;SDS011;4812;51.992;8.648;2022-08-19T12:49:23;15.93;;;14.93;;
9547;SDS011;4812;51.992;8.648;2022-08-19T12:52:11;16.00;;;15.07;;
9547;SDS011;4812;51.992;8.648;2022-08-19T12:54:42;15.80;;;14.90;;
9547;SDS011;4812;51.992;8.648;2022-08-19T12:57:11;15.02;;;14.13;;
9547;SDS011;4812;51.992;8.648;2022-08-19T12:59:39;15.07;;;14.27;;
9547;SDS011;4812;51.992;8.648;2022-08-19T13:02:07;15.23;;;14.43;;
9547;SDS011;4812;51.992;8.648;2022-08-19T13:04:35;15.77;;;14.88;;
9547;SDS011;4812;51.992;8.648;2022-08-19T13:07:06;15.18;;;14.27;;
9547;SDS011;4812;51.992;8.648;2022-08-19T13:09:35;15.18;;;14.27;;
9547;SDS011;4812;51.992;8.648;2022-08-19T13:12:03;15.90;;;14.90;;
9547;SDS011;4812;51.992;8.648;2022-08-19T13:14:35;16.00;;;15.07;;
9547;SDS011;4812;51.992;8.648;2022-08-19T13:17:04;15.45;;;14.55;;
9547;SDS011;4812;51.992;8.648;2022-08-19T13:19:31;15.32;;;14.38;;
9547;SDS011;4812;51.992;8.648;2022-08-19T13:21:59;15.88;;;14.93;;
9547;SDS011;4812;51.992;8.648;2022-08-19T13:24:26;15.60;;;14.35;;
9547;SDS011;4812;51.992;8.648;2022-08-19T13:26:59;15.60;;;14.60;;
9547;SDS011;4812;51.992;8.648;2022-08-19T13:29:27;15.80;;;14.80;;
9547;SDS011;4812;51.992;8.648;2022-08-19T13:32:14;15.38;;;14.52;;
9547;SDS011;4812;51.992;8.648;2022-08-19T13:35:00;15.98;;;15.07;;
9547;SDS011;4812;51.992;8.648;2022-08-19T13:37:28;15.38;;;14.48;;
9547;SDS011;4812;51.992;8.648;2022-08-19T13:40:09;15.88;;;14.77;;
9547;SDS011;4812;51.992;8.648;2022-08-19T13:42:41;15.55;;;14.65;;
9547;SDS011;4812;51.992;8.648;2022-08-19T13:45:09;16.65;;;15.38;;
9547;SDS011;4812;51.992;8.648;2022-08-19T13:47:39;16.05;;;15.10;;
9547;SDS011;4812;51.992;8.648;2022-08-19T13:50:10;16.27;;;15.27;;
9547;SDS011;4812;51.992;8.648;2022-08-19T13:52:39;15.88;;;14.98;;
9547;SDS011;4812;51.992;8.648;2022-08-19T13:55:07;15.80;;;14.80;;
9547;SDS011;4812;51.992;8.648;2022-08-19T13:57:36;16.02;;;14.82;;
9547;SDS011;4812;51.992;8.648;2022-08-19T14:00:06;15.80;;;14.90;;
9547;SDS011;4812;51.992;8.648;2022-08-19T14:02:35;15.75;;;14.85;;
9547;SDS011;4812;51.992;8.648;2022-08-19T14:05:08;16.13;;;15.13;;
9547;SDS011;4812;51.992;8.648;2022-08-19T14:07:37;15.63;;;14.70;;
9547;SDS011;4812;51.992;8.648;2022-08-19T14:10:05;16.42;;;15.32;;
9547;SDS011;4812;51.992;8.648;2022-08-19T14:12:33;15.90;;;14.90;;
9547;SDS011;4812;51.992;8.648;2022-08-19T14:15:01;15.70;;;14.80;;
9547;SDS011;4812;51.992;8.648;2022-08-19T14:17:29;15.65;;;14.70;;
9547;SDS011;4812;51.992;8.648;2022-08-19T14:19:57;15.70;;;14.80;;
9547;SDS011;4812;51.992;8.648;2022-08-19T14:22:38;15.20;;;14.25;;
9547;SDS011;4812;51.992;8.648;2022-08-19T14:25:08;15.27;;;14.38;;
9547;SDS011;4812;51.992;8.648;2022-08-19T14:27:37;15.30;;;14.50;;
9547;SDS011;4812;51.992;8.648;2022-08-19T14:30:07;15.20;;;14.27;;
9547;SDS011;4812;51.992;8.648;2022-08-19T14:32:36;15.70;;;14.80;;
9547;SDS011;4812;51.992;8.648;2022-08-19T14:35:04;15.68;;;14.43;;
9547;SDS011;4812;51.992;8.648;2022-08-19T14:37:33;15.27;;;14.38;;
9547;SDS011;4812;51.992;8.648;2022-08-19T14:40:12;15.30;;;14.40;;
9547;SDS011;4812;51.992;8.648;2022-08-19T14:42:42;15.10;;;14.20;;
9547;SDS011;4812;51.992;8.648;2022-08-19T14:45:10;14.98;;;14.07;;
9547;SDS011;4812;51.992;8.648;2022-08-19T14:47:39;15.27;;;14.38;;
9547;SDS011;4812;51.992;8.648;2022-08-19T14:50:07;14.48;;;13.57;;
9547;SDS011;4812;51.992;8.648;2022-08-19T14:52:43;15.15;;;14.05;;
9547;SDS011;4812;51.992;8.648;2022-08-19T14:55:13;15.05;;;14.15;;
9547;SDS011;4812;51.992;8.648;2022-08-19T14:57:42;15.45;;;14.45;;
9547;SDS011;4812;51.992;8.648;2022-08-19T15:00:10;15.40;;;14.30;;
9547;SDS011;4812;51.992;8.648;2022-08-19T15:02:39;15.00;;;14.10;;
9547;SDS011;4812;51.992;8.648;2022-08-19T15:05:07;15.48;;;14.38;;
9547;SDS011;4812;51.992;8.648;2022-08-19T15:07:35;14.85;;;14.05;;
9547;SDS011;4812;51.992;8.648;2022-08-19T15:10:04;15.05;;;14.18;;